createdAt,value
2023-01-22T00:00:09.153Z,25.52
2023-01-22T00:02:37.225Z,24.80
2023-01-22T00:05:05.088Z,21.02
2023-01-22T00:07:34.152Z,22.73
2023-01-22T00:10:00.901Z,23.30
2023-01-22T00:12:27.929Z,21.77
2023-01-22T00:14:54.631Z,22.48
2023-01-22T00:17:21.225Z,21.95
2023-01-22T00:19:47.871Z,21.20
2023-01-22T00:22:14.452Z,21.45
2023-01-22T00:24:41.127Z,18.67
2023-01-22T00:27:07.873Z,24.75
2023-01-22T00:29:37.625Z,24.75
2023-01-22T00:32:04.555Z,24.65
2023-01-22T00:34:31.317Z,26.95
2023-01-22T00:36:58.269Z,22.45
2023-01-22T00:39:27.132Z,22.73
2023-01-22T00:41:53.685Z,23.85
2023-01-22T00:44:20.294Z,23.02
2023-01-22T00:46:46.954Z,24.20
2023-01-22T00:49:13.537Z,21.92
2023-01-22T00:51:40.311Z,24.90
2023-01-22T00:54:07.091Z,25.95
2023-01-22T00:56:33.819Z,24.67
2023-01-22T00:59:00.440Z,23.80
2023-01-22T01:01:27.141Z,25.33
2023-01-22T01:03:53.762Z,23.33
2023-01-22T01:06:22.102Z,24.75
2023-01-22T01:08:50.232Z,25.45
2023-01-22T01:11:22.718Z,20.92
2023-01-22T01:13:50.968Z,23.67
2023-01-22T01:16:29.883Z,24.08
2023-01-22T01:19:01.377Z,25.02
2023-01-22T01:21:28.734Z,23.88
2023-01-22T01:23:57.353Z,22.30
2023-01-22T01:26:24.932Z,23.92
2023-01-22T01:28:55.032Z,25.10
2023-01-22T01:31:23.882Z,21.00
2023-01-22T01:33:50.543Z,24.60
2023-01-22T01:36:30.643Z,25.88
2023-01-22T01:39:04.997Z,24.73
2023-01-22T01:41:31.876Z,22.83
2023-01-22T01:44:10.808Z,24.77
2023-01-22T01:46:51.948Z,21.90
2023-01-22T01:49:21.264Z,24.50
2023-01-22T01:51:48.852Z,23.17
2023-01-22T01:54:16.274Z,27.75
2023-01-22T01:56:51.013Z,25.10
2023-01-22T01:59:20.115Z,25.77
2023-01-22T02:01:53.599Z,22.55
2023-01-22T02:06:47.065Z,26.92
2023-01-22T02:09:14.487Z,24.15
2023-01-22T02:11:41.285Z,26.15
2023-01-22T02:14:12.929Z,30.73
2023-01-22T02:16:39.735Z,31.25
2023-01-22T02:19:06.381Z,30.13
2023-01-22T02:21:32.942Z,27.83
2023-01-22T02:24:00.145Z,26.52
2023-01-22T02:26:26.926Z,28.27
2023-01-22T02:28:53.849Z,28.38
2023-01-22T02:31:22.727Z,27.52
2023-01-22T02:33:49.468Z,30.05
2023-01-22T02:36:18.448Z,27.80
2023-01-22T02:38:45.033Z,26.50
2023-01-22T02:41:12.025Z,25.60
2023-01-22T02:43:39.226Z,25.98
2023-01-22T02:46:05.905Z,24.23
2023-01-22T02:48:32.590Z,25.73
2023-01-22T02:50:59.255Z,24.60
2023-01-22T02:53:26.151Z,25.00
2023-01-22T02:55:52.785Z,25.42
2023-01-22T02:58:19.363Z,24.27
2023-01-22T03:00:45.891Z,27.02
2023-01-22T03:03:15.375Z,24.15
2023-01-22T03:05:52.218Z,25.27
2023-01-22T03:08:22.254Z,23.45
2023-01-22T03:10:48.808Z,24.98
2023-01-22T03:13:33.717Z,22.00
2023-01-22T03:16:22.661Z,24.10
2023-01-22T03:19:08.026Z,25.83
2023-01-22T03:21:34.645Z,26.25
2023-01-22T03:24:01.192Z,27.58
2023-01-22T03:26:31.614Z,26.25
2023-01-22T03:29:00.669Z,26.50
2023-01-22T03:31:27.445Z,26.13
2023-01-22T03:33:54.140Z,27.70
2023-01-22T03:36:20.706Z,27.35
2023-01-22T03:38:47.662Z,28.30
2023-01-22T03:41:17.083Z,26.35
2023-01-22T03:43:46.468Z,24.75
2023-01-22T03:46:16.383Z,24.38
2023-01-22T03:48:44.472Z,29.00
2023-01-22T03:51:14.759Z,22.88
2023-01-22T03:53:43.378Z,29.40
2023-01-22T03:56:17.881Z,25.40
2023-01-22T03:58:45.049Z,24.75
2023-01-22T04:01:14.564Z,25.45
2023-01-22T04:03:41.629Z,23.95
2023-01-22T04:06:10.606Z,25.15
2023-01-22T04:08:41.069Z,27.00
2023-01-22T04:11:08.127Z,24.15
2023-01-22T04:13:36.191Z,25.92
2023-01-22T04:16:03.423Z,22.35
2023-01-22T04:18:30.644Z,20.95
2023-01-22T04:20:57.660Z,24.35
2023-01-22T04:23:25.348Z,22.83
2023-01-22T04:25:52.819Z,22.50
2023-01-22T04:28:20.061Z,23.95
2023-01-22T04:30:49.332Z,24.27
2023-01-22T04:33:15.936Z,25.17
2023-01-22T04:35:42.525Z,24.88
2023-01-22T04:38:12.966Z,23.45
2023-01-22T04:40:40.080Z,24.70
2023-01-22T04:43:09.696Z,24.13
2023-01-22T04:45:38.953Z,24.20
2023-01-22T04:48:08.479Z,21.73
2023-01-22T04:50:37.404Z,22.88
2023-01-22T04:53:05.072Z,25.88
2023-01-22T04:55:33.962Z,24.15
2023-01-22T04:58:01.311Z,27.45
2023-01-22T05:00:31.220Z,26.70
2023-01-22T05:02:59.421Z,22.95
2023-01-22T05:05:27.292Z,24.17
2023-01-22T05:07:56.343Z,24.65
2023-01-22T05:10:23.777Z,23.77
2023-01-22T05:12:53.000Z,23.83
2023-01-22T05:15:24.352Z,24.95
2023-01-22T05:17:51.858Z,27.38
2023-01-22T05:20:18.834Z,23.15
2023-01-22T05:22:45.523Z,21.08
2023-01-22T05:25:12.644Z,25.52
2023-01-22T05:27:39.280Z,23.27
2023-01-22T05:30:07.333Z,25.05
2023-01-22T05:32:36.536Z,25.65
2023-01-22T05:35:04.385Z,29.33
2023-01-22T05:37:31.970Z,25.60
2023-01-22T05:39:58.572Z,27.27
2023-01-22T05:42:25.226Z,25.67
2023-01-22T05:44:51.771Z,24.65
2023-01-22T05:47:18.624Z,24.50
2023-01-22T05:49:45.204Z,26.45
2023-01-22T05:52:11.806Z,24.77
2023-01-22T05:54:40.785Z,26.02
2023-01-22T05:57:07.636Z,28.13
2023-01-22T05:59:34.650Z,29.45
2023-01-22T06:02:01.825Z,35.88
2023-01-22T06:04:28.861Z,33.47
2023-01-22T06:06:55.537Z,35.92
2023-01-22T06:09:22.636Z,35.50
2023-01-22T06:11:49.388Z,36.80
2023-01-22T06:14:18.587Z,38.35
2023-01-22T06:16:45.168Z,35.20
2023-01-22T06:19:12.572Z,31.30
2023-01-22T06:21:39.188Z,30.52
2023-01-22T06:24:06.193Z,33.05
2023-01-22T06:26:32.854Z,29.30
2023-01-22T06:28:59.399Z,33.63
2023-01-22T06:31:26.196Z,31.35
2023-01-22T06:33:54.658Z,29.38
2023-01-22T06:36:21.213Z,33.10
2023-01-22T06:38:48.091Z,33.05
2023-01-22T06:41:16.945Z,31.63
2023-01-22T06:43:43.537Z,32.10
2023-01-22T06:46:10.320Z,32.00
2023-01-22T06:48:36.990Z,34.50
2023-01-22T06:51:03.828Z,33.15
2023-01-22T06:53:30.611Z,32.17
2023-01-22T06:55:59.547Z,36.50
2023-01-22T06:58:26.386Z,33.00
2023-01-22T07:00:53.002Z,30.30
2023-01-22T07:03:20.378Z,31.40
2023-01-22T07:05:46.886Z,31.38
2023-01-22T07:08:15.266Z,32.83
2023-01-22T07:10:42.219Z,33.65
2023-01-22T07:13:10.261Z,33.60
2023-01-22T07:15:39.082Z,37.90
2023-01-22T07:18:05.631Z,35.67
2023-01-22T07:20:32.770Z,35.58
2023-01-22T07:23:00.262Z,34.78
2023-01-22T07:25:27.621Z,35.25
2023-01-22T07:28:01.696Z,35.08
2023-01-22T07:30:31.110Z,38.72
2023-01-22T07:33:02.450Z,39.50
2023-01-22T07:35:30.084Z,40.67
2023-01-22T07:37:58.498Z,38.38
2023-01-22T07:40:25.950Z,35.63
2023-01-22T07:42:53.302Z,38.65
2023-01-22T07:45:21.100Z,36.17
2023-01-22T07:47:59.162Z,37.80
2023-01-22T07:50:28.915Z,35.75
2023-01-22T07:52:56.222Z,34.60
2023-01-22T07:55:23.858Z,36.42
2023-01-22T07:58:01.232Z,37.33
2023-01-22T08:00:27.908Z,39.35
2023-01-22T08:02:56.735Z,39.88
2023-01-22T08:05:23.559Z,39.05
2023-01-22T08:07:52.735Z,42.10
2023-01-22T08:10:20.372Z,40.50
2023-01-22T08:12:47.488Z,49.25
2023-01-22T08:15:18.850Z,45.13
2023-01-22T08:17:48.302Z,42.30
2023-01-22T08:20:14.874Z,42.90
2023-01-22T08:22:41.495Z,44.65
2023-01-22T08:25:08.409Z,44.13
2023-01-22T08:27:37.498Z,41.47
2023-01-22T08:30:05.347Z,38.40
2023-01-22T08:32:32.012Z,39.67
2023-01-22T08:34:58.632Z,40.22
2023-01-22T08:37:25.570Z,44.42
2023-01-22T08:39:52.189Z,41.83
2023-01-22T08:42:18.939Z,46.75
2023-01-22T08:44:45.499Z,43.15
2023-01-22T08:47:12.496Z,44.03
2023-01-22T08:49:39.093Z,44.25
2023-01-22T08:52:06.134Z,42.30
2023-01-22T08:54:32.735Z,44.83
2023-01-22T08:56:59.408Z,48.20
2023-01-22T08:59:25.976Z,50.47
2023-01-22T09:01:55.104Z,50.90
2023-01-22T09:04:22.599Z,47.13
2023-01-22T09:06:49.156Z,41.97
2023-01-22T09:09:15.829Z,39.53
2023-01-22T09:11:42.426Z,40.97
2023-01-22T09:14:11.215Z,45.78
2023-01-22T09:16:37.921Z,46.03
2023-01-22T09:19:05.694Z,42.72
2023-01-22T09:21:33.837Z,39.28
2023-01-22T09:24:00.959Z,37.22
2023-01-22T09:26:27.574Z,41.05
2023-01-22T09:28:54.187Z,113.55
2023-01-22T09:31:20.889Z,104.00
2023-01-22T09:33:51.277Z,45.40
2023-01-22T09:36:18.115Z,48.53
2023-01-22T09:38:44.941Z,43.28
2023-01-22T09:41:20.449Z,42.67
2023-01-22T09:43:59.699Z,40.53
2023-01-22T09:46:43.361Z,47.03
2023-01-22T09:49:20.166Z,40.65
2023-01-22T09:51:58.626Z,42.67
2023-01-22T09:54:26.102Z,39.55
2023-01-22T09:56:57.095Z,34.78
2023-01-22T09:59:32.420Z,33.13
2023-01-22T10:02:11.232Z,34.22
2023-01-22T10:04:46.590Z,37.63
2023-01-22T10:07:31.007Z,37.28
2023-01-22T10:10:03.398Z,36.53
2023-01-22T10:12:32.191Z,41.97
2023-01-22T10:14:58.953Z,37.20
2023-01-22T10:17:32.721Z,36.03
2023-01-22T10:20:04.269Z,31.40
2023-01-22T10:22:31.070Z,32.92
2023-01-22T10:24:58.775Z,34.97
2023-01-22T10:27:36.973Z,34.13
2023-01-22T10:30:25.373Z,32.40
2023-01-22T10:33:04.369Z,32.42
2023-01-22T10:35:32.215Z,33.47
2023-01-22T10:38:00.854Z,32.25
2023-01-22T10:40:27.453Z,35.17
2023-01-22T10:43:04.029Z,35.45
2023-01-22T10:45:30.841Z,35.25
2023-01-22T10:48:27.044Z,36.00
2023-01-22T10:50:59.828Z,35.85
2023-01-22T10:53:33.480Z,33.47
2023-01-22T10:56:02.506Z,34.30
2023-01-22T10:58:36.675Z,31.25
2023-01-22T11:01:06.839Z,32.90
2023-01-22T11:03:36.750Z,34.65
2023-01-22T11:06:12.451Z,33.42
2023-01-22T11:08:51.202Z,32.15
2023-01-22T11:11:23.652Z,32.47
2023-01-22T11:14:18.358Z,31.55
2023-01-22T11:16:49.805Z,31.88
2023-01-22T11:19:36.108Z,33.75
2023-01-22T11:22:11.780Z,33.58
2023-01-22T11:24:47.136Z,30.60
2023-01-22T11:27:22.514Z,31.48
2023-01-22T11:30:07.929Z,33.08
2023-01-22T11:33:10.695Z,34.65
2023-01-22T11:36:08.799Z,35.00
2023-01-22T11:38:51.264Z,36.22
2023-01-22T11:41:27.339Z,36.28
2023-01-22T11:44:21.597Z,38.28
2023-01-22T11:47:03.282Z,37.17
2023-01-22T11:50:03.511Z,32.92
2023-01-22T11:53:02.570Z,33.80
2023-01-22T11:55:54.608Z,35.42
2023-01-22T11:58:35.523Z,36.88
2023-01-22T12:01:41.616Z,35.92
2023-01-22T12:04:35.809Z,34.03
2023-01-22T12:07:08.244Z,31.17
2023-01-22T12:10:08.763Z,30.85
2023-01-22T12:12:49.240Z,38.80
2023-01-22T12:15:32.031Z,36.88
2023-01-22T12:18:29.745Z,34.55
2023-01-22T12:21:21.999Z,34.70
2023-01-22T12:24:19.370Z,35.22
2023-01-22T12:26:56.674Z,37.92
2023-01-22T12:29:29.010Z,36.42
2023-01-22T12:32:09.006Z,33.00
2023-01-22T12:34:48.381Z,37.50
2023-01-22T12:37:19.032Z,36.97
2023-01-22T12:40:21.503Z,35.35
2023-01-22T12:43:00.423Z,48.53
2023-01-22T12:45:47.274Z,39.67
2023-01-22T12:48:35.095Z,31.20
2023-01-22T12:51:01.733Z,30.13
2023-01-22T12:53:39.110Z,30.50
2023-01-22T12:56:09.421Z,26.50
2023-01-22T12:58:39.794Z,27.90
2023-01-22T13:01:22.721Z,24.23
2023-01-22T13:04:01.594Z,23.17
2023-01-22T13:06:41.050Z,24.70
2023-01-22T13:09:24.673Z,21.17
2023-01-22T13:11:51.237Z,20.85
2023-01-22T13:14:19.739Z,22.67
2023-01-22T13:16:59.590Z,20.08
2023-01-22T13:19:42.520Z,25.33
2023-01-22T13:22:35.546Z,23.93
2023-01-22T13:25:02.321Z,30.33
2023-01-22T13:27:35.161Z,27.38
2023-01-22T13:30:14.662Z,23.67
2023-01-22T13:32:41.645Z,28.50
2023-01-22T13:35:13.255Z,25.52
2023-01-22T13:37:41.924Z,27.55
2023-01-22T13:40:23.433Z,29.05
2023-01-22T13:42:51.356Z,26.20
2023-01-22T13:45:33.137Z,28.42
2023-01-22T13:48:04.289Z,28.77
2023-01-22T13:50:31.955Z,26.85
2023-01-22T13:53:01.282Z,24.58
2023-01-22T13:55:28.909Z,47.58
2023-01-22T13:58:01.581Z,64.38
2023-01-22T14:00:39.567Z,32.57
2023-01-22T14:03:21.888Z,54.00
2023-01-22T14:05:50.230Z,39.92
2023-01-22T14:08:16.996Z,29.63
2023-01-22T14:10:43.761Z,30.10
2023-01-22T14:13:13.442Z,29.98
2023-01-22T14:15:41.383Z,31.50
2023-01-22T14:18:13.351Z,32.60
2023-01-22T14:20:41.656Z,31.10
2023-01-22T14:23:08.302Z,29.50
2023-01-22T14:25:44.026Z,35.03
2023-01-22T14:28:13.347Z,33.97
2023-01-22T14:30:42.242Z,33.90
2023-01-22T14:33:15.369Z,34.38
2023-01-22T14:35:42.001Z,35.03
2023-01-22T14:38:08.569Z,38.40
2023-01-22T14:40:35.266Z,35.03
2023-01-22T14:43:02.736Z,41.00
2023-01-22T14:45:29.752Z,37.25
2023-01-22T14:47:56.565Z,34.05
2023-01-22T14:50:24.024Z,32.75
2023-01-22T14:52:51.511Z,32.35
2023-01-22T14:55:19.327Z,32.15
2023-01-22T14:57:48.453Z,30.90
2023-01-22T15:00:17.620Z,35.65
2023-01-22T15:02:44.722Z,35.95
2023-01-22T15:05:14.547Z,31.50
2023-01-22T15:07:41.140Z,35.08
2023-01-22T15:10:08.552Z,45.17
2023-01-22T15:12:35.201Z,45.55
2023-01-22T15:15:01.961Z,39.55
2023-01-22T15:17:28.566Z,36.85
2023-01-22T15:19:55.242Z,38.78
2023-01-22T15:22:21.815Z,36.38
2023-01-22T15:24:48.605Z,39.47
2023-01-22T15:27:18.564Z,33.75
2023-01-22T15:29:46.385Z,34.95
2023-01-22T15:32:13.256Z,35.88
2023-01-22T15:34:40.055Z,50.92
2023-01-22T15:37:06.957Z,37.55
2023-01-22T15:39:33.634Z,50.20
2023-01-22T15:42:00.242Z,37.38
2023-01-22T15:44:26.826Z,41.70
2023-01-22T15:46:53.959Z,37.25
2023-01-22T15:49:20.539Z,37.10
2023-01-22T15:51:47.089Z,39.03
2023-01-22T15:54:15.659Z,44.67
2023-01-22T15:56:42.515Z,46.40
2023-01-22T15:59:11.591Z,45.80
2023-01-22T16:01:38.487Z,49.45
2023-01-22T16:04:06.344Z,46.05
2023-01-22T16:06:34.763Z,44.65
2023-01-22T16:09:03.116Z,58.15
2023-01-22T16:11:30.305Z,49.92
2023-01-22T16:13:59.135Z,45.90
2023-01-22T16:16:36.248Z,45.30
2023-01-22T16:19:05.017Z,40.42
2023-01-22T16:21:34.650Z,39.63
2023-01-22T16:24:04.761Z,36.03
2023-01-22T16:26:36.453Z,33.80
2023-01-22T16:29:04.874Z,35.33
2023-01-22T16:31:37.632Z,56.83
2023-01-22T16:34:15.656Z,44.13
2023-01-22T16:36:45.662Z,88.32
2023-01-22T16:39:23.397Z,80.20
2023-01-22T16:41:51.361Z,55.90
2023-01-22T16:44:20.556Z,52.95
2023-01-22T16:46:49.630Z,52.97
2023-01-22T16:49:22.255Z,42.15
2023-01-22T16:51:54.498Z,43.50
2023-01-22T16:54:32.780Z,45.17
2023-01-22T16:57:03.062Z,43.58
2023-01-22T16:59:31.068Z,47.72
2023-01-22T17:01:59.627Z,44.08
2023-01-22T17:04:26.964Z,36.88
2023-01-22T17:06:55.605Z,46.22
2023-01-22T17:09:27.415Z,43.20
2023-01-22T17:12:03.119Z,48.88
2023-01-22T17:14:31.837Z,76.68
2023-01-22T17:16:58.979Z,73.10
2023-01-22T17:19:25.450Z,58.95
2023-01-22T17:21:57.937Z,54.67
2023-01-22T17:24:25.325Z,44.38
2023-01-22T17:26:52.630Z,42.90
2023-01-22T17:29:22.092Z,45.60
2023-01-22T17:31:48.726Z,40.67
2023-01-22T17:34:15.660Z,40.67
2023-01-22T17:36:42.471Z,41.60
2023-01-22T17:39:14.752Z,41.63
2023-01-22T17:41:44.106Z,39.55
2023-01-22T17:44:12.077Z,39.53
2023-01-22T17:46:38.977Z,42.00
2023-01-22T17:49:05.987Z,37.28
2023-01-22T17:51:34.603Z,38.00
2023-01-22T17:54:03.183Z,39.13
2023-01-22T17:56:35.328Z,40.08
2023-01-22T17:59:06.124Z,36.50
2023-01-22T18:01:35.085Z,40.22
2023-01-22T18:04:05.476Z,38.60
2023-01-22T18:06:32.355Z,39.72
2023-01-22T18:08:58.930Z,40.53
2023-01-22T18:11:28.348Z,42.10
2023-01-22T18:14:00.480Z,43.88
2023-01-22T18:16:29.508Z,44.45
2023-01-22T18:19:00.714Z,41.15
2023-01-22T18:21:27.249Z,155.68
2023-01-22T18:23:53.730Z,112.97
2023-01-22T18:26:23.017Z,77.90
2023-01-22T18:28:51.261Z,72.55
2023-01-22T18:31:21.414Z,54.38
2023-01-22T18:33:51.100Z,56.97
2023-01-22T18:36:27.953Z,54.40
2023-01-22T18:38:58.481Z,44.90
2023-01-22T18:41:26.387Z,41.58
2023-01-22T18:43:55.404Z,39.35
2023-01-22T18:46:26.165Z,42.35
2023-01-22T18:48:57.882Z,42.22
2023-01-22T18:51:25.523Z,46.85
2023-01-22T18:53:52.442Z,45.25
2023-01-22T18:56:18.943Z,43.63
2023-01-22T18:58:45.995Z,43.78
2023-01-22T19:01:19.790Z,47.20
2023-01-22T19:03:54.070Z,44.63
2023-01-22T19:06:23.130Z,62.88
2023-01-22T19:09:00.564Z,58.00
2023-01-22T19:11:27.465Z,58.95
2023-01-22T19:13:56.003Z,62.95
2023-01-22T19:16:24.347Z,60.85
2023-01-22T19:18:56.181Z,57.22
2023-01-22T19:21:27.384Z,49.45
2023-01-22T19:23:56.544Z,48.85
2023-01-22T19:26:28.934Z,84.15
2023-01-22T19:28:58.536Z,63.97
2023-01-22T19:31:30.382Z,47.80
2023-01-22T19:33:57.170Z,47.63
2023-01-22T19:36:28.099Z,41.53
2023-01-22T19:38:58.384Z,79.28
2023-01-22T19:41:26.495Z,60.38
2023-01-22T19:43:59.369Z,44.80
2023-01-22T19:46:27.436Z,40.67
2023-01-22T19:48:54.972Z,41.95
2023-01-22T19:51:22.284Z,41.80
2023-01-22T19:53:49.420Z,47.40
2023-01-22T19:56:27.561Z,74.28
2023-01-22T19:58:59.258Z,47.28
2023-01-22T20:01:28.134Z,54.90
2023-01-22T20:03:56.503Z,62.03
2023-01-22T20:06:23.914Z,63.00
2023-01-22T20:08:51.072Z,61.03
2023-01-22T20:11:18.485Z,57.35
2023-01-22T20:13:48.741Z,54.35
2023-01-22T20:16:25.256Z,54.28
2023-01-22T20:18:52.845Z,55.55
2023-01-22T20:21:20.643Z,55.47
2023-01-22T20:23:48.824Z,51.58
2023-01-22T20:26:16.995Z,50.72
2023-01-22T20:28:43.558Z,51.10
2023-01-22T20:31:19.981Z,50.20
2023-01-22T20:33:50.207Z,48.53
2023-01-22T20:36:21.868Z,49.63
2023-01-22T20:38:52.475Z,46.03
2023-01-22T20:41:19.842Z,46.67
2023-01-22T20:43:46.363Z,48.83
2023-01-22T20:46:22.023Z,44.75
2023-01-22T20:48:51.885Z,41.67
2023-01-22T20:51:24.398Z,47.28
2023-01-22T20:53:52.831Z,46.87
2023-01-22T20:56:23.643Z,43.92
2023-01-22T20:58:58.602Z,42.83
2023-01-22T21:01:26.009Z,39.63
2023-01-22T21:03:56.066Z,38.33
2023-01-22T21:06:22.685Z,43.50
2023-01-22T21:08:56.061Z,39.85
2023-01-22T21:11:24.052Z,39.83
2023-01-22T21:13:52.448Z,39.63
2023-01-22T21:16:26.467Z,39.17
2023-01-22T21:19:01.431Z,39.05
2023-01-22T21:21:29.124Z,42.47
2023-01-22T21:23:56.227Z,42.67
2023-01-22T21:26:25.910Z,46.53
2023-01-22T21:29:01.434Z,52.53
2023-01-22T21:31:28.690Z,50.85
2023-01-22T21:34:03.059Z,47.95
2023-01-22T21:36:41.097Z,43.28
2023-01-22T21:39:10.674Z,40.78
2023-01-22T21:41:41.652Z,42.30
2023-01-22T21:44:30.117Z,44.72
2023-01-22T21:46:56.657Z,43.95
2023-01-22T21:49:24.481Z,42.13
2023-01-22T21:51:55.903Z,41.67
2023-01-22T21:54:23.809Z,44.65
2023-01-22T21:56:50.759Z,43.45
2023-01-22T21:59:17.735Z,45.97
2023-01-22T22:01:45.105Z,47.45
2023-01-22T22:04:15.156Z,56.20
2023-01-22T22:06:46.929Z,54.53
2023-01-22T22:09:19.305Z,59.13
2023-01-22T22:11:45.841Z,63.83
2023-01-22T22:14:15.714Z,60.72
2023-01-22T22:16:43.560Z,55.50
2023-01-22T22:19:10.549Z,49.53
2023-01-22T22:21:37.424Z,51.08
2023-01-22T22:24:04.217Z,47.45
2023-01-22T22:26:31.076Z,46.75
2023-01-22T22:28:58.053Z,44.70
2023-01-22T22:31:25.100Z,43.92
2023-01-22T22:33:54.348Z,43.78
2023-01-22T22:36:23.683Z,41.67
2023-01-22T22:38:50.292Z,43.70
2023-01-22T22:41:20.700Z,41.28
2023-01-22T22:43:51.880Z,47.72
2023-01-22T22:46:20.150Z,49.78
2023-01-22T22:48:47.753Z,44.17
2023-01-22T22:51:18.014Z,48.05
2023-01-22T22:53:44.526Z,47.78
2023-01-22T22:56:14.447Z,48.47
2023-01-22T22:58:41.149Z,45.15
2023-01-22T23:01:09.380Z,51.67
2023-01-22T23:03:37.505Z,47.13
2023-01-22T23:06:11.818Z,44.13
2023-01-22T23:08:40.187Z,49.05
2023-01-22T23:11:09.536Z,45.00
2023-01-22T23:13:36.779Z,46.35
2023-01-22T23:16:08.403Z,45.88
2023-01-22T23:18:38.600Z,43.90
2023-01-22T23:21:16.258Z,42.05
2023-01-22T23:23:42.956Z,43.08
2023-01-22T23:26:12.817Z,44.13
2023-01-22T23:28:40.242Z,44.00
2023-01-22T23:31:15.531Z,41.13
2023-01-22T23:33:42.919Z,43.10
2023-01-22T23:36:13.305Z,42.00
2023-01-22T23:38:40.127Z,45.95
2023-01-22T23:41:09.900Z,40.88
2023-01-22T23:43:38.625Z,42.72
2023-01-22T23:46:16.332Z,41.35
2023-01-22T23:48:43.026Z,40.92
2023-01-22T23:51:11.812Z,39.50
2023-01-22T23:53:40.324Z,40.65
2023-01-22T23:56:07.620Z,39.15
2023-01-22T23:58:35.177Z,37.78
